American Spirit — WDC4277 — position and weather

sailwx.info

Track history (hours):
 
Tides and Currents Weather Stations Pressure Air Temp Water Temp Dewpoint Dewpoint Depression Visibility Wind Speed Wind Dir Waves Ship Positions

American Spirit

Owner: AMERICAN WORKBOATS INC, TERMINAL ISLAND, CA. More information available from US FCC via Universal Licensing System and Coast Guard Vessel Documentation Center.

Last reported at 2015-Mar-26 20:23 UTC. Time now 2015-Mar-29 13:44 UTC.
Position N 33°44' W 118°16'.

Length 3 m; draft 10 m.

Type: Tug. MMSI: 367022090.

Date/timePositionNaut miles runAvg speedWind from/ knotsBaromVisibWave heightAir tempDewpointWater temp
2015-Mar-26 20:23N 33°44' W 118°16'0 0.1
2015-Mar-26 19:31N 33°44' W 118°16'0 0.0
2015-Mar-25 22:29N 33°44' W 118°16'0 0.0
2015-Mar-25 20:20N 33°44' W 118°16'  
2015-Mar-20 21:33N 33°44' W 118°16'0 0.0
2015-Mar-20 20:30N 33°44' W 118°16'0 0.3
2015-Mar-20 19:33N 33°44' W 118°16'0 0.1
2015-Mar-20 15:28N 33°44' W 118°16'  
2015-Mar-17 14:25N 36°30' W 122°07'70 8.4
2015-Mar-17 06:10N 37°35' W 122°37'5 8.4
2015-Mar-17 05:33N 37°40' W 122°37'7 7.5
2015-Mar-17 04:33N 37°47' W 122°34'6 5.6
2015-Mar-17 03:33N 37°49' W 122°27'2 1.7
2015-Mar-17 02:34N 37°49' W 122°25'0 0.0
2015-Mar-17 01:34N 37°49' W 122°25'0 0.0
2015-Mar-17 00:34N 37°49' W 122°25'0 0.0
2015-Mar-16 23:33N 37°49' W 122°25'0 0.0
2015-Mar-16 22:34N 37°49' W 122°25'0 0.0
2015-Mar-16 21:34N 37°49' W 122°25'7 7.0
2015-Mar-16 20:33N 37°56' W 122°26'  
Track history (hours):
 
Tides and Currents Weather Stations Pressure Air Temp Water Temp Dewpoint Dewpoint Depression Visibility Wind Speed Wind Dir Waves Ship Positions

American Spirit

Owner: AMERICAN WORKBOATS INC, TERMINAL ISLAND, CA. More information available from US FCC via Universal Licensing System and Coast Guard Vessel Documentation Center.

Last reported at 2015-Mar-26 20:23 UTC. Time now 2015-Mar-29 13:44 UTC.
Position N 33°44' W 118°16'.

Length 3 m; draft 10 m.

Type: Tug. MMSI: 367022090.

Date/timePositionNaut miles runAvg speedWind from/ knotsBaromVisibWave heightAir tempDewpointWater temp
2015-Mar-26 20:23N 33°44' W 118°16'0 0.1
2015-Mar-26 19:31N 33°44' W 118°16'0 0.0
2015-Mar-25 22:29N 33°44' W 118°16'0 0.0
2015-Mar-25 20:20N 33°44' W 118°16'  
2015-Mar-20 21:33N 33°44' W 118°16'0 0.0
2015-Mar-20 20:30N 33°44' W 118°16'0 0.3
2015-Mar-20 19:33N 33°44' W 118°16'0 0.1
2015-Mar-20 15:28N 33°44' W 118°16'  
2015-Mar-17 14:25N 36°30' W 122°07'70 8.4
2015-Mar-17 06:10N 37°35' W 122°37'5 8.4
2015-Mar-17 05:33N 37°40' W 122°37'7 7.5
2015-Mar-17 04:33N 37°47' W 122°34'6 5.6
2015-Mar-17 03:33N 37°49' W 122°27'2 1.7
2015-Mar-17 02:34N 37°49' W 122°25'0 0.0
2015-Mar-17 01:34N 37°49' W 122°25'0 0.0
2015-Mar-17 00:34N 37°49' W 122°25'0 0.0
2015-Mar-16 23:33N 37°49' W 122°25'0 0.0
2015-Mar-16 22:34N 37°49' W 122°25'0 0.0
2015-Mar-16 21:34N 37°49' W 122°25'7 7.0
2015-Mar-16 20:33N 37°56' W 122°26'  

Dump ship's entire track history